createdAt,value
2018-01-24T00:01:34.173Z,76.00
2018-01-24T00:04:02.528Z,76.00
2018-01-24T00:06:30.908Z,76.00
2018-01-24T00:08:59.272Z,75.90
2018-01-24T00:11:28.440Z,76.30
2018-01-24T00:13:57.561Z,76.00
2018-01-24T00:16:26.680Z,76.20
2018-01-24T00:18:55.078Z,76.10
2018-01-24T00:21:23.441Z,75.90
2018-01-24T00:23:51.848Z,76.30
2018-01-24T00:26:20.205Z,76.50
2018-01-24T00:28:48.564Z,76.70
2018-01-24T00:31:16.986Z,77.00
2018-01-24T00:36:38.224Z,77.30
2018-01-24T00:39:06.580Z,76.40
2018-01-24T00:41:34.933Z,76.10
2018-01-24T00:44:03.322Z,76.00
2018-01-24T00:46:31.676Z,76.30
2018-01-24T00:49:00.108Z,76.40
2018-01-24T00:51:28.465Z,76.10
2018-01-24T00:53:56.829Z,76.20
2018-01-24T00:56:25.208Z,76.50
2018-01-24T00:58:53.555Z,76.50
2018-01-24T01:01:22.717Z,77.00
2018-01-24T01:03:51.085Z,76.90
2018-01-24T01:06:19.445Z,77.10
2018-01-24T01:08:49.685Z,77.30
2018-01-24T01:12:15.327Z,77.40
2018-01-24T01:14:43.720Z,77.60
2018-01-24T01:17:12.078Z,77.50
2018-01-24T01:19:40.442Z,77.30
2018-01-24T01:22:08.829Z,77.20
2018-01-24T01:24:37.180Z,77.20
2018-01-24T01:27:05.584Z,77.00
2018-01-24T01:29:33.936Z,77.40
2018-01-24T01:32:02.365Z,77.90
2018-01-24T01:34:30.745Z,77.80
2018-01-24T01:36:59.106Z,77.80
2018-01-24T01:39:27.515Z,77.40
2018-01-24T01:41:56.628Z,77.90
2018-01-24T01:44:25.034Z,77.80
2018-01-24T01:46:53.420Z,77.70
2018-01-24T01:49:21.780Z,77.70
2018-01-24T01:51:50.461Z,77.70
2018-01-24T01:54:18.824Z,77.60
2018-01-24T01:56:47.184Z,77.40
2018-01-24T01:59:16.340Z,76.90
2018-01-24T02:01:44.698Z,76.80
2018-01-24T02:04:13.276Z,76.70
2018-01-24T02:06:41.626Z,76.30
2018-01-24T02:09:10.739Z,76.30
2018-01-24T02:11:39.116Z,76.30
2018-01-24T02:14:07.474Z,75.50
2018-01-24T02:16:36.801Z,75.00
2018-01-24T02:19:05.185Z,75.00
2018-01-24T02:21:33.537Z,74.90
2018-01-24T02:24:02.691Z,75.00
2018-01-24T02:26:31.456Z,74.90
2018-01-24T02:29:00.134Z,75.20
2018-01-24T02:31:28.510Z,74.90
2018-01-24T02:33:56.866Z,74.80
2018-01-24T02:36:26.009Z,74.50
2018-01-24T02:39:12.248Z,74.50
2018-01-24T02:41:41.369Z,74.20
2018-01-24T02:44:09.767Z,74.20
2018-01-24T02:46:38.148Z,74.00
2018-01-24T02:49:06.504Z,73.60
2018-01-24T02:51:34.882Z,73.00
2018-01-24T02:54:03.252Z,72.90
2018-01-24T02:56:31.745Z,73.00
2018-01-24T02:59:00.119Z,72.80
2018-01-24T03:01:28.473Z,73.00
2018-01-24T03:03:57.185Z,72.90
2018-01-24T03:06:25.583Z,72.90
2018-01-24T03:08:53.936Z,72.80
2018-01-24T03:11:22.344Z,72.90
2018-01-24T03:13:50.700Z,72.80
2018-01-24T03:16:19.110Z,72.70
2018-01-24T03:18:47.464Z,72.60
2018-01-24T03:21:15.819Z,72.50
2018-01-24T03:23:44.197Z,72.40
2018-01-24T03:26:12.556Z,72.10
2018-01-24T03:28:41.715Z,71.60
2018-01-24T03:31:10.080Z,71.60
2018-01-24T03:33:38.441Z,70.80
2018-01-24T03:36:06.821Z,70.80
2018-01-24T03:38:35.176Z,71.00
2018-01-24T03:41:03.622Z,71.00
2018-01-24T03:43:32.009Z,70.80
2018-01-24T03:46:00.368Z,70.60
2018-01-24T03:48:28.749Z,70.80
2018-01-24T03:50:57.112Z,70.70
2018-01-24T03:53:25.520Z,70.60
2018-01-24T03:55:53.880Z,71.10
2018-01-24T03:58:22.240Z,71.60
2018-01-24T04:00:50.617Z,71.90
2018-01-24T04:03:18.974Z,72.20
2018-01-24T04:05:47.390Z,72.50
2018-01-24T04:08:15.749Z,72.40
2018-01-24T04:10:44.110Z,72.90
2018-01-24T04:13:12.485Z,72.90
2018-01-24T04:15:40.836Z,72.80
2018-01-24T04:18:09.988Z,73.10
2018-01-24T04:20:38.345Z,73.30
2018-01-24T04:23:06.710Z,73.30
2018-01-24T04:25:35.091Z,73.20
2018-01-24T04:28:03.455Z,73.40
2018-01-24T04:30:32.782Z,74.10
2018-01-24T04:33:01.132Z,73.90
2018-01-24T04:35:30.255Z,74.00
2018-01-24T04:37:58.628Z,73.90
2018-01-24T04:40:26.979Z,73.90
2018-01-24T04:42:56.128Z,73.60
2018-01-24T04:45:24.501Z,73.60
2018-01-24T04:47:52.853Z,73.70
2018-01-24T04:50:21.241Z,73.50
2018-01-24T04:52:49.593Z,72.90
2018-01-24T04:55:18.748Z,72.30
2018-01-24T04:57:47.110Z,72.30
2018-01-24T05:00:15.474Z,72.40
2018-01-24T05:02:43.856Z,72.60
2018-01-24T05:05:12.227Z,72.40
2018-01-24T05:07:41.023Z,72.40
2018-01-24T05:10:09.393Z,72.40
2018-01-24T05:12:37.756Z,72.70
2018-01-24T05:15:06.908Z,72.50
2018-01-24T05:17:35.296Z,72.40
2018-01-24T05:20:03.738Z,72.20
2018-01-24T05:22:32.103Z,72.50
2018-01-24T05:25:00.461Z,72.50
2018-01-24T05:27:29.600Z,72.20
2018-01-24T05:29:57.948Z,72.10
2018-01-24T05:32:26.366Z,72.30
2018-01-24T05:34:54.724Z,72.00
2018-01-24T05:37:23.081Z,72.00
2018-01-24T05:39:51.456Z,72.00
2018-01-24T05:42:19.814Z,72.00
2018-01-24T05:44:48.997Z,70.90
2018-01-24T05:47:18.140Z,70.70
2018-01-24T05:49:46.493Z,70.80
2018-01-24T05:52:15.645Z,71.40
2018-01-24T05:54:44.001Z,71.40
2018-01-24T05:57:12.884Z,71.30
2018-01-24T05:59:41.926Z,71.00
2018-01-24T06:02:11.072Z,71.30
2018-01-24T06:04:39.468Z,71.20
2018-01-24T06:07:07.821Z,71.10
2018-01-24T06:09:36.615Z,71.30
2018-01-24T06:12:04.977Z,71.20
2018-01-24T06:14:34.097Z,71.40
2018-01-24T06:17:02.481Z,71.40
2018-01-24T06:19:30.837Z,71.30
2018-01-24T06:21:59.249Z,71.00
2018-01-24T06:24:27.604Z,70.80
2018-01-24T06:26:55.965Z,70.60
2018-01-24T06:29:25.121Z,70.50
2018-01-24T06:31:53.476Z,70.50
2018-01-24T06:34:22.040Z,70.60
2018-01-24T06:36:50.401Z,70.50
2018-01-24T06:39:18.752Z,70.40
2018-01-24T06:41:47.132Z,70.20
2018-01-24T06:44:14.780Z,69.70
2018-01-24T06:46:43.533Z,70.30
2018-01-24T06:49:11.888Z,69.80
2018-01-24T06:51:40.241Z,69.80
2018-01-24T06:54:08.681Z,69.80
2018-01-24T06:56:37.037Z,69.80
2018-01-24T06:59:05.629Z,69.30
2018-01-24T07:01:33.985Z,69.00
2018-01-24T07:04:02.328Z,68.60
2018-01-24T07:06:30.704Z,68.20
2018-01-24T07:08:59.056Z,67.90
2018-01-24T07:11:27.735Z,67.70
2018-01-24T07:14:14.060Z,67.80
2018-01-24T07:16:42.608Z,68.00
2018-01-24T07:19:10.964Z,67.90
2018-01-24T07:21:39.312Z,67.90
2018-01-24T07:24:07.690Z,68.20
2018-01-24T07:26:36.049Z,68.60
2018-01-24T07:29:04.719Z,69.00
2018-01-24T07:31:33.072Z,68.40
2018-01-24T07:34:01.426Z,67.70
2018-01-24T07:36:30.570Z,67.20
2018-01-24T07:38:58.969Z,67.10
2018-01-24T07:41:27.508Z,66.80
2018-01-24T07:43:55.861Z,65.60
2018-01-24T07:46:24.985Z,65.30
2018-01-24T07:48:53.373Z,65.30
2018-01-24T07:51:21.735Z,64.80
2018-01-24T07:53:50.141Z,65.10
2018-01-24T07:56:18.493Z,65.00
2018-01-24T07:58:46.858Z,65.00
2018-01-24T08:01:15.241Z,63.10
2018-01-24T08:03:43.604Z,60.40
2018-01-24T08:06:13.137Z,54.00
2018-01-24T08:08:41.505Z,54.00
2018-01-24T08:11:09.865Z,52.20
2018-01-24T08:13:39.021Z,50.00
2018-01-24T08:16:07.393Z,50.00
2018-01-24T08:18:35.812Z,49.50
2018-01-24T08:21:04.964Z,44.90
2018-01-24T08:23:33.331Z,44.80
2018-01-24T08:26:01.722Z,43.30
2018-01-24T08:28:30.097Z,41.90
2018-01-24T08:30:58.662Z,40.80
2018-01-24T08:33:27.026Z,38.20
2018-01-24T08:35:55.397Z,36.70
2018-01-24T08:38:23.793Z,34.50
2018-01-24T08:40:52.165Z,33.20
2018-01-24T08:43:20.562Z,33.50
2018-01-24T08:45:48.973Z,31.20
2018-01-24T08:48:17.330Z,31.20
2018-01-24T08:50:45.724Z,30.40
2018-01-24T08:53:14.086Z,29.30
2018-01-24T08:55:42.640Z,29.10
2018-01-24T08:58:11.001Z,29.00
2018-01-24T09:00:39.374Z,28.40
2018-01-24T09:03:08.526Z,28.10
2018-01-24T09:05:36.906Z,28.10
2018-01-24T09:08:05.661Z,27.80
2018-01-24T09:10:34.028Z,28.00
2018-01-24T09:13:02.394Z,28.50
2018-01-24T09:15:31.545Z,28.30
2018-01-24T09:17:59.933Z,28.20
2018-01-24T09:20:28.577Z,27.70
2018-01-24T09:22:56.960Z,27.10
2018-01-24T09:25:25.341Z,27.50
2018-01-24T09:27:53.719Z,26.10
2018-01-24T09:30:22.098Z,25.70
2018-01-24T09:32:50.885Z,26.30
2018-01-24T09:35:19.255Z,24.70
2018-01-24T09:37:47.632Z,24.80
2018-01-24T09:40:16.026Z,24.80
2018-01-24T09:42:44.385Z,24.40
2018-01-24T09:45:12.856Z,24.00
2018-01-24T09:47:41.227Z,23.50
2018-01-24T09:50:10.362Z,22.70
2018-01-24T09:52:38.745Z,22.60
2018-01-24T09:55:07.107Z,22.10
2018-01-24T09:57:35.518Z,21.40
2018-01-24T10:00:03.886Z,21.10
2018-01-24T10:02:32.295Z,20.20
2018-01-24T10:05:01.052Z,20.00
2018-01-24T10:07:30.334Z,19.80
2018-01-24T10:09:58.769Z,19.80
2018-01-24T10:12:27.900Z,19.60
2018-01-24T10:14:56.282Z,19.50
2018-01-24T10:17:24.685Z,19.50
2018-01-24T10:19:53.089Z,18.30
2018-01-24T10:22:23.245Z,17.90
2018-01-24T10:24:51.622Z,17.90
2018-01-24T10:27:19.994Z,18.40
2018-01-24T10:29:49.161Z,18.30
2018-01-24T10:32:17.533Z,18.30
2018-01-24T10:34:46.173Z,17.80
2018-01-24T10:37:14.562Z,17.40
2018-01-24T10:39:42.954Z,16.90
2018-01-24T10:42:11.476Z,16.70
2018-01-24T10:44:39.822Z,17.00
2018-01-24T10:47:08.653Z,16.80
2018-01-24T10:49:37.005Z,17.40
2018-01-24T10:52:05.444Z,17.80
2018-01-24T10:54:33.841Z,16.90
2018-01-24T10:57:02.213Z,17.00
2018-01-24T10:59:30.787Z,16.20
2018-01-24T11:01:59.157Z,15.70
2018-01-24T11:04:27.521Z,15.80
2018-01-24T11:06:55.909Z,15.80
2018-01-24T11:09:24.278Z,15.50
2018-01-24T11:11:53.076Z,15.70
2018-01-24T11:14:24.734Z,15.60
2018-01-24T11:16:53.375Z,15.10
2018-01-24T11:19:21.724Z,15.40
2018-01-24T11:21:50.106Z,15.70
2018-01-24T11:24:18.546Z,15.00
2018-01-24T11:26:46.916Z,14.70
2018-01-24T11:29:15.358Z,14.70
2018-01-24T11:31:44.627Z,14.20
2018-01-24T11:34:12.998Z,14.20
2018-01-24T11:36:41.458Z,14.20
2018-01-24T11:39:09.829Z,14.40
2018-01-24T11:41:38.545Z,14.30
2018-01-24T11:44:06.919Z,14.30
2018-01-24T11:46:35.295Z,14.60
2018-01-24T11:49:03.697Z,14.00
2018-01-24T11:51:32.061Z,13.80
2018-01-24T11:54:00.467Z,13.00
2018-01-24T11:56:29.638Z,12.90
2018-01-24T11:58:58.005Z,12.80
2018-01-24T12:01:26.473Z,12.50
2018-01-24T12:03:55.490Z,12.30
2018-01-24T12:06:23.931Z,12.50
2018-01-24T12:08:53.067Z,12.50
2018-01-24T12:11:21.438Z,12.50
2018-01-24T12:13:49.825Z,12.40
2018-01-24T12:16:18.185Z,12.40
2018-01-24T12:18:46.616Z,12.80
2018-01-24T12:21:15.016Z,13.20
2018-01-24T12:23:44.151Z,12.80
2018-01-24T12:26:12.544Z,12.70
2018-01-24T12:28:40.913Z,13.30
2018-01-24T12:31:09.321Z,13.00
2018-01-24T12:33:38.463Z,12.90
2018-01-24T12:36:06.821Z,12.90
2018-01-24T12:38:35.992Z,12.40
2018-01-24T12:41:04.372Z,12.30
2018-01-24T12:43:34.445Z,12.70
2018-01-24T12:46:02.814Z,12.70
2018-01-24T12:48:31.204Z,12.30
2018-01-24T12:50:59.593Z,12.60
2018-01-24T12:53:27.957Z,12.40
2018-01-24T12:55:56.649Z,12.10
2018-01-24T12:58:25.018Z,12.70
2018-01-24T13:00:53.412Z,12.60
2018-01-24T13:03:21.802Z,12.80
2018-01-24T13:05:50.166Z,13.00
2018-01-24T13:08:18.742Z,12.90
2018-01-24T13:10:47.119Z,13.00
2018-01-24T13:13:15.584Z,12.80
2018-01-24T13:15:44.455Z,12.80
2018-01-24T13:18:13.597Z,12.60
2018-01-24T13:20:41.994Z,12.50
2018-01-24T13:23:10.370Z,13.10
2018-01-24T13:25:38.730Z,12.70
2018-01-24T13:28:07.111Z,13.30
2018-01-24T13:30:35.484Z,13.80
2018-01-24T13:33:04.175Z,13.90
2018-01-24T13:35:32.543Z,14.20
2018-01-24T13:38:00.914Z,14.40
2018-01-24T13:40:29.301Z,14.80
2018-01-24T13:42:57.668Z,16.60
2018-01-24T13:45:26.476Z,17.70
2018-01-24T13:47:54.838Z,18.60
2018-01-24T13:50:23.205Z,19.30
2018-01-24T13:52:51.605Z,19.90
2018-01-24T13:55:19.990Z,20.20
2018-01-24T13:57:48.556Z,21.30
2018-01-24T14:00:16.920Z,22.20
2018-01-24T14:02:45.286Z,23.50
2018-01-24T14:05:14.441Z,26.20
2018-01-24T14:07:42.821Z,26.10
2018-01-24T14:10:11.588Z,27.90
2018-01-24T14:12:39.986Z,29.30
2018-01-24T14:15:08.368Z,31.10
2018-01-24T14:17:36.774Z,33.20
2018-01-24T14:20:05.971Z,36.30
2018-01-24T14:22:34.633Z,36.30
2018-01-24T14:25:03.013Z,37.10
2018-01-24T14:27:31.406Z,37.90
2018-01-24T14:30:00.574Z,39.30
2018-01-24T14:32:28.952Z,39.70
2018-01-24T14:34:57.734Z,39.60
2018-01-24T14:37:26.098Z,39.80
2018-01-24T14:39:54.452Z,39.80
2018-01-24T14:42:22.840Z,40.50
2018-01-24T14:44:51.216Z,40.80
2018-01-24T14:47:19.917Z,40.70
2018-01-24T14:49:48.279Z,41.20
2018-01-24T14:52:16.642Z,41.20
2018-01-24T14:54:45.822Z,40.60
2018-01-24T14:57:14.193Z,40.60
2018-01-24T14:59:42.626Z,41.30
2018-01-24T15:02:10.989Z,41.70
2018-01-24T15:04:39.353Z,42.20
2018-01-24T15:07:08.521Z,42.40
2018-01-24T15:09:36.889Z,42.30
2018-01-24T15:12:05.290Z,42.90
2018-01-24T15:14:33.665Z,43.40
2018-01-24T15:17:02.845Z,43.80
2018-01-24T15:19:31.234Z,43.70
2018-01-24T15:21:59.610Z,43.70
2018-01-24T15:24:28.048Z,43.10
2018-01-24T15:26:56.411Z,43.20
2018-01-24T15:29:24.776Z,43.10
2018-01-24T15:31:53.930Z,43.20
2018-01-24T15:34:22.312Z,43.20
2018-01-24T15:36:51.537Z,43.70
2018-01-24T15:39:20.665Z,43.60
2018-01-24T15:41:49.036Z,43.60
2018-01-24T15:44:17.543Z,43.90
2018-01-24T15:46:45.922Z,43.90
2018-01-24T15:49:15.243Z,43.80
2018-01-24T15:51:43.634Z,44.00
2018-01-24T15:54:13.558Z,44.30
2018-01-24T15:56:41.947Z,44.30
2018-01-24T15:59:11.093Z,44.40
2018-01-24T16:01:39.512Z,44.30
2018-01-24T16:04:07.884Z,44.40
2018-01-24T16:06:36.280Z,44.40
2018-01-24T16:09:05.468Z,45.30
2018-01-24T16:11:33.854Z,45.30
2018-01-24T16:14:03.049Z,46.00
2018-01-24T16:16:31.436Z,46.00
2018-01-24T16:19:00.573Z,46.60
2018-01-24T16:21:28.951Z,46.50
2018-01-24T16:23:57.338Z,46.60
2018-01-24T16:26:26.118Z,46.70
2018-01-24T16:28:54.525Z,47.00
2018-01-24T16:31:23.289Z,47.10
2018-01-24T16:33:51.805Z,47.20
2018-01-24T16:36:20.185Z,47.30
2018-01-24T16:38:49.480Z,47.70
2018-01-24T16:41:17.865Z,47.70
2018-01-24T16:43:46.302Z,47.80
2018-01-24T16:46:14.789Z,48.60
2018-01-24T16:48:43.574Z,48.10
2018-01-24T16:51:12.102Z,47.80
2018-01-24T16:53:40.516Z,48.00
2018-01-24T16:56:08.893Z,48.30
2018-01-24T16:58:37.326Z,48.30
2018-01-24T17:01:05.876Z,48.20
2018-01-24T17:03:34.671Z,49.20
2018-01-24T17:06:03.280Z,49.30
2018-01-24T17:08:32.033Z,49.30
2018-01-24T17:11:02.563Z,49.60
2018-01-24T17:13:32.630Z,49.70
2018-01-24T17:16:01.366Z,49.60
2018-01-24T17:18:32.058Z,49.80
2018-01-24T17:21:00.774Z,50.20
2018-01-24T17:23:29.136Z,49.90
2018-01-24T17:25:57.508Z,49.80
2018-01-24T17:28:25.905Z,49.80
2018-01-24T17:30:54.261Z,50.20
2018-01-24T17:33:22.666Z,50.20
2018-01-24T17:35:51.040Z,50.40
2018-01-24T17:38:19.409Z,50.30
2018-01-24T17:40:48.629Z,50.40
2018-01-24T17:43:17.097Z,50.70
2018-01-24T17:45:45.518Z,50.80
2018-01-24T17:48:14.853Z,50.90
2018-01-24T17:50:44.011Z,51.10
2018-01-24T17:53:12.434Z,51.10
2018-01-24T17:55:42.248Z,51.40
2018-01-24T17:58:11.760Z,51.90
2018-01-24T18:00:40.300Z,52.00
2018-01-24T18:03:08.717Z,52.50
2018-01-24T18:05:38.251Z,53.20
2018-01-24T18:08:06.669Z,54.00
2018-01-24T18:10:35.928Z,54.40
2018-01-24T18:13:04.337Z,54.30
2018-01-24T18:15:32.708Z,54.80
2018-01-24T18:18:01.136Z,55.30
2018-01-24T18:20:29.556Z,55.60
2018-01-24T18:22:58.016Z,55.70
2018-01-24T18:25:26.907Z,56.10
2018-01-24T18:27:55.804Z,56.50
2018-01-24T18:30:24.431Z,56.50
2018-01-24T18:32:52.804Z,56.50
2018-01-24T18:35:21.486Z,56.80
2018-01-24T18:37:50.436Z,56.50
2018-01-24T18:40:20.212Z,56.50
2018-01-24T18:42:49.557Z,57.20
2018-01-24T18:45:19.753Z,56.80
2018-01-24T18:47:48.201Z,57.10
2018-01-24T18:50:17.519Z,57.00
2018-01-24T18:52:46.959Z,57.00
2018-01-24T18:55:15.815Z,57.20
2018-01-24T18:57:45.647Z,57.00
2018-01-24T19:00:14.827Z,57.00
2018-01-24T19:02:43.561Z,57.00
2018-01-24T19:05:13.634Z,57.10
2018-01-24T19:07:42.645Z,57.10
2018-01-24T19:10:12.049Z,57.10
2018-01-24T19:12:41.872Z,57.90
2018-01-24T19:15:10.955Z,58.00
2018-01-24T19:17:41.100Z,58.50
2018-01-24T19:20:11.219Z,59.30
2018-01-24T19:22:40.469Z,59.20
2018-01-24T19:25:09.509Z,58.70
2018-01-24T19:27:39.553Z,59.00
2018-01-24T19:30:10.035Z,59.00
2018-01-24T19:32:39.648Z,59.00
2018-01-24T19:35:08.687Z,59.10
2018-01-24T19:37:38.837Z,58.90
2018-01-24T19:40:07.829Z,58.90
2018-01-24T19:42:37.660Z,58.80
2018-01-24T19:45:06.250Z,58.70
2018-01-24T19:47:35.042Z,58.70
2018-01-24T19:50:04.682Z,58.80
2018-01-24T19:52:33.688Z,58.70
2018-01-24T19:55:02.733Z,58.80
2018-01-24T19:57:31.559Z,58.90
2018-01-24T20:00:00.473Z,59.50
2018-01-24T20:02:31.067Z,59.20
2018-01-24T20:05:00.854Z,59.50
2018-01-24T20:07:29.764Z,59.50
2018-01-24T20:09:59.551Z,59.80
2018-01-24T20:12:29.367Z,59.30
2018-01-24T20:14:58.693Z,59.20
2018-01-24T20:17:29.619Z,59.80
2018-01-24T20:20:00.811Z,59.80
2018-01-24T20:22:30.557Z,59.80
2018-01-24T20:25:00.152Z,60.30
2018-01-24T20:27:29.673Z,60.80
2018-01-24T20:29:59.915Z,61.70
2018-01-24T20:32:30.015Z,61.20
2018-01-24T20:34:59.552Z,61.20
2018-01-24T20:37:29.282Z,60.30
2018-01-24T20:39:58.542Z,60.20
2018-01-24T20:42:28.926Z,60.30
2018-01-24T20:44:57.742Z,60.10
2018-01-24T20:47:27.998Z,59.90
2018-01-24T20:49:57.743Z,60.50
2018-01-24T20:52:26.973Z,60.50
2018-01-24T20:54:56.036Z,60.60
2018-01-24T20:57:24.655Z,60.80
2018-01-24T20:59:53.537Z,61.10
2018-01-24T21:02:22.266Z,61.70
2018-01-24T21:04:51.323Z,61.80
2018-01-24T21:07:20.229Z,62.00
2018-01-24T21:09:48.714Z,61.80
2018-01-24T21:12:18.026Z,61.90
2018-01-24T21:14:48.471Z,62.30
2018-01-24T21:17:17.766Z,62.30
2018-01-24T21:19:46.674Z,62.80
2018-01-24T21:22:16.303Z,63.00
2018-01-24T21:24:45.955Z,63.10
2018-01-24T21:27:16.402Z,63.60
2018-01-24T21:30:05.839Z,62.70
2018-01-24T21:32:53.201Z,63.00
2018-01-24T21:35:39.709Z,62.90
2018-01-24T21:38:08.649Z,62.90
2018-01-24T21:40:37.488Z,63.30
2018-01-24T21:43:06.671Z,63.50
2018-01-24T21:45:35.995Z,63.60
2018-01-24T21:48:04.373Z,63.40
2018-01-24T21:50:34.950Z,63.50
2018-01-24T21:53:04.751Z,64.00
2018-01-24T21:55:33.166Z,63.90
2018-01-24T21:58:01.703Z,64.20
2018-01-24T22:00:30.426Z,64.20
2018-01-24T22:02:58.793Z,64.00
2018-01-24T22:05:27.226Z,63.80
2018-01-24T22:07:55.883Z,64.00
2018-01-24T22:10:24.272Z,63.90
2018-01-24T22:12:53.625Z,63.80
2018-01-24T22:15:22.014Z,63.80
2018-01-24T22:17:50.484Z,63.90
2018-01-24T22:20:18.875Z,63.60
2018-01-24T22:22:47.252Z,63.50
2018-01-24T22:25:15.657Z,63.60
2018-01-24T22:27:44.042Z,64.00
2018-01-24T22:30:13.773Z,64.10
2018-01-24T22:32:42.592Z,64.00
2018-01-24T22:35:11.061Z,64.10
2018-01-24T22:37:39.421Z,64.10
2018-01-24T22:40:07.789Z,64.10
2018-01-24T22:42:37.602Z,64.80
2018-01-24T22:45:05.992Z,64.80
2018-01-24T22:47:34.390Z,64.70
2018-01-24T22:50:03.214Z,64.70
2018-01-24T22:52:31.761Z,64.60
2018-01-24T22:55:00.118Z,64.50
2018-01-24T22:57:28.478Z,65.20
2018-01-24T22:59:57.634Z,66.60
2018-01-24T23:02:26.001Z,66.60
2018-01-24T23:04:54.393Z,67.00
2018-01-24T23:07:22.776Z,67.00
2018-01-24T23:09:51.196Z,68.00
2018-01-24T23:12:20.332Z,67.90
2018-01-24T23:14:48.688Z,67.90
2018-01-24T23:17:17.073Z,67.90
2018-01-24T23:19:45.429Z,68.00
2018-01-24T23:22:14.585Z,68.70
2018-01-24T23:24:42.949Z,68.70
2018-01-24T23:27:11.472Z,68.40
2018-01-24T23:29:40.596Z,67.90
2018-01-24T23:32:08.956Z,67.80
2018-01-24T23:34:38.128Z,68.50
2018-01-24T23:37:06.502Z,68.50
2018-01-24T23:39:34.917Z,68.30
2018-01-24T23:42:03.276Z,68.10
2018-01-24T23:44:34.726Z,68.40
2018-01-24T23:47:03.857Z,68.30
2018-01-24T23:49:32.238Z,68.10
2018-01-24T23:52:00.705Z,67.40
2018-01-24T23:54:29.069Z,67.70
2018-01-24T23:56:58.216Z,67.60
2018-01-24T23:59:26.733Z,67.50
